Time;durP1;ratioP1;P1;durP2;ratioP2;P2;SDS_P1;SDS_P2;PMS_P1;PMS_P2;Temp;Humidity;BMP_temperature;BMP_pressure;BME280_temperature;BME280_humidity;BME280_pressure;Samples;Min_cycle;Max_cycle;Signal;HPM_P1;HPM_P2
2023/10/04 00:01:46;;;;;;;7.13;3.00;;;;;13.30;99698.00;;;;5052409;28;20106;-68
2023/10/04 00:04:13;;;;;;;7.57;3.42;;;;;13.30;99699.00;;;;5052112;28;20079;-68
2023/10/04 00:06:41;;;;;;;4.25;2.13;;;;;13.20;99701.00;;;;5053228;28;20395;-68
2023/10/04 00:09:11;;;;;;;5.63;2.63;;;;;13.30;99697.00;;;;5052746;28;20049;-68
2023/10/04 00:11:38;;;;;;;3.75;2.20;;;;;13.30;99698.00;;;;5051538;28;20037;-68
2023/10/04 00:14:05;;;;;;;5.63;2.47;;;;;13.30;99700.00;;;;5050561;28;20613;-68
2023/10/04 00:16:32;;;;;;;4.03;2.40;;;;;13.30;99707.00;;;;5052051;28;20049;-69
2023/10/04 00:18:59;;;;;;;4.95;2.75;;;;;13.30;99707.00;;;;5050534;28;20079;-68
2023/10/04 00:21:26;;;;;;;4.88;2.90;;;;;13.30;99704.00;;;;5051927;28;20079;-68
2023/10/04 00:23:53;;;;;;;5.10;2.47;;;;;13.10;99705.00;;;;5052569;28;20525;-68
2023/10/04 00:26:20;;;;;;;3.67;2.67;;;;;12.90;99706.00;;;;5050383;28;20049;-68
2023/10/04 00:28:48;;;;;;;6.40;2.78;;;;;12.80;99702.00;;;;5051650;28;20063;-68
2023/10/04 00:31:15;;;;;;;6.97;3.63;;;;;12.80;99697.00;;;;5051637;28;20110;-68
2023/10/04 00:33:41;;;;;;;6.55;3.03;;;;;12.80;99702.00;;;;5049531;28;20053;-68
2023/10/04 00:36:08;;;;;;;5.88;2.90;;;;;12.90;99709.00;;;;5050163;28;20044;-68
2023/10/04 00:38:35;;;;;;;4.85;2.90;;;;;12.70;99698.00;;;;5050309;28;20049;-68
2023/10/04 00:41:08;;;;;;;4.28;2.70;;;;;12.70;99703.00;;;;5052266;28;20044;-68
2023/10/04 00:43:46;;;;;;;5.03;2.60;;;;;12.70;99702.00;;;;5054826;28;20512;-68
2023/10/04 00:46:13;;;;;;;4.22;2.65;;;;;12.60;99706.00;;;;5053961;28;20144;-68
2023/10/04 00:48:39;;;;;;;4.35;2.50;;;;;12.60;99702.00;;;;5055242;28;20041;-69
2023/10/04 00:51:06;;;;;;;3.95;3.10;;;;;12.60;99706.00;;;;5055144;28;20056;-68
2023/10/04 00:53:34;;;;;;;4.30;2.50;;;;;12.60;99707.00;;;;5054596;28;20098;-68
2023/10/04 00:56:02;;;;;;;3.53;2.35;;;;;12.50;99713.00;;;;5055093;28;20124;-68
2023/10/04 00:58:29;;;;;;;4.30;2.45;;;;;12.40;99707.00;;;;5055096;28;20063;-68
2023/10/04 01:00:55;;;;;;;5.47;2.60;;;;;12.40;99716.00;;;;5054942;28;20049;-68
2023/10/04 01:03:25;;;;;;;3.13;2.30;;;;;12.40;99712.00;;;;5055167;28;20098;-68
2023/10/04 01:05:53;;;;;;;4.82;2.53;;;;;12.40;99706.00;;;;5036861;28;20053;-67
2023/10/04 01:08:23;;;;;;;3.70;2.53;;;;;12.40;99707.00;;;;5055004;28;20378;-67
2023/10/04 01:10:54;;;;;;;4.53;2.53;;;;;12.30;99712.00;;;;5054840;28;20136;-67
2023/10/04 01:13:21;;;;;;;6.53;2.63;;;;;12.30;99712.00;;;;5053584;28;20057;-68
2023/10/04 01:15:51;;;;;;;5.13;2.45;;;;;12.30;99710.00;;;;5052407;28;20616;-68
2023/10/04 01:18:18;;;;;;;4.43;2.30;;;;;12.30;99710.00;;;;5054031;28;20045;-68
2023/10/04 01:20:46;;;;;;;8.20;2.67;;;;;12.30;99708.00;;;;5053456;28;20083;-68
2023/10/04 01:23:14;;;;;;;3.47;2.15;;;;;12.30;99708.00;;;;5053949;28;20047;-68
2023/10/04 01:25:43;;;;;;;4.30;2.22;;;;;12.30;99720.00;;;;5052953;28;20506;-68
2023/10/04 01:28:12;;;;;;;5.03;2.40;;;;;12.20;99710.00;;;;5054812;28;20055;-68
2023/10/04 01:30:40;;;;;;;5.95;2.67;;;;;12.20;99713.00;;;;5053853;28;20045;-68
2023/10/04 01:33:13;;;;;;;3.67;2.20;;;;;12.20;99714.00;;;;5036977;28;20572;-68
2023/10/04 01:35:40;;;;;;;3.80;2.60;;;;;12.20;99718.00;;;;5053986;28;20079;-67
2023/10/04 01:38:07;;;;;;;4.78;2.30;;;;;12.20;99716.00;;;;5053358;28;20053;-68
2023/10/04 01:40:35;;;;;;;4.65;2.65;;;;;12.10;99717.00;;;;5053369;28;20567;-68
2023/10/04 01:43:14;;;;;;;6.70;2.15;;;;;12.10;99722.00;;;;5054889;28;20037;-67
2023/10/04 01:45:50;;;;;;;4.65;2.47;;;;;12.00;99718.00;;;;5035967;28;20125;-68
2023/10/04 01:48:20;;;;;;;7.93;2.40;;;;;11.90;99714.00;;;;5053071;28;20463;-68
2023/10/04 01:50:48;;;;;;;5.43;2.20;;;;;12.00;99715.00;;;;5053157;28;20052;-68
2023/10/04 01:53:15;;;;;;;8.90;2.10;;;;;12.00;99711.00;;;;5052755;28;20049;-68
2023/10/04 01:55:42;;;;;;;5.03;2.60;;;;;11.90;99713.00;;;;5053512;28;20045;-68
2023/10/04 01:58:10;;;;;;;2.38;1.98;;;;;11.70;99715.00;;;;5052763;28;20494;-68
2023/10/04 02:00:37;;;;;;;4.22;2.10;;;;;11.70;99715.00;;;;5052549;28;20056;-68
2023/10/04 02:03:04;;;;;;;4.78;2.78;;;;;11.60;99709.00;;;;5053726;28;20049;-68
2023/10/04 02:05:36;;;;;;;4.95;2.72;;;;;11.60;99716.00;;;;5052109;28;20044;-67
2023/10/04 02:08:08;;;;;;;7.93;3.10;;;;;11.50;99718.00;;;;5052883;28;20068;-68
2023/10/04 02:10:36;;;;;;;4.18;2.60;;;;;11.60;99713.00;;;;5052685;28;20091;-68
2023/10/04 02:13:06;;;;;;;6.07;2.58;;;;;11.70;99713.00;;;;5053838;28;20045;-68
2023/10/04 02:15:34;;;;;;;3.83;2.10;;;;;11.70;99710.00;;;;5051828;28;20501;-68
2023/10/04 02:18:01;;;;;;;5.03;2.60;;;;;11.70;99710.00;;;;5053497;28;20405;-68
2023/10/04 02:20:32;;;;;;;4.15;2.22;;;;;11.60;99706.00;;;;5052269;28;20053;-68
2023/10/04 02:22:59;;;;;;;6.45;2.42;;;;;11.70;99710.00;;;;5052355;28;20049;-68
2023/10/04 02:25:26;;;;;;;6.38;3.20;;;;;11.70;99707.00;;;;5053069;28;20124;-69
2023/10/04 02:27:53;;;;;;;6.50;2.38;;;;;11.70;99702.00;;;;5052599;28;20094;-70
2023/10/04 02:30:23;;;;;;;4.45;2.67;;;;;11.70;99705.00;;;;5052539;28;20068;-69
2023/10/04 02:32:53;;;;;;;5.50;2.40;;;;;11.60;99705.00;;;;5052252;28;20135;-70
2023/10/04 02:35:27;;;;;;;3.55;2.30;;;;;11.60;99696.00;;;;5053566;28;20501;-70
2023/10/04 02:37:59;;;;;;;3.58;2.53;;;;;11.60;99697.00;;;;5035986;28;20048;-70
2023/10/04 02:40:27;;;;;;;3.10;2.53;;;;;11.60;99699.00;;;;5052045;28;20044;-69
2023/10/04 02:42:55;;;;;;;3.85;2.35;;;;;11.60;99696.00;;;;5053127;28;20045;-69
2023/10/04 02:45:24;;;;;;;4.15;2.20;;;;;11.60;99697.00;;;;5051411;28;20055;-69
2023/10/04 02:47:52;;;;;;;4.40;2.38;;;;;11.70;99699.00;;;;5052809;28;20041;-69
2023/10/04 02:50:21;;;;;;;9.30;2.85;;;;;11.70;99703.00;;;;5036239;28;20135;-69
2023/10/04 02:52:50;;;;;;;5.30;2.55;;;;;11.70;99698.00;;;;5053111;28;20045;-69
2023/10/04 02:55:19;;;;;;;3.95;2.60;;;;;11.60;99707.00;;;;5051033;28;20572;-69
2023/10/04 02:57:51;;;;;;;6.80;2.80;;;;;11.60;99699.00;;;;5051564;28;20068;-69
2023/10/04 03:00:20;;;;;;;3.70;2.17;;;;;11.50;99701.00;;;;5052833;28;20041;-70
2023/10/04 03:02:53;;;;;;;5.85;3.08;;;;;11.50;99703.00;;;;5051514;28;20410;-69
2023/10/04 03:05:28;;;;;;;3.10;2.30;;;;;11.50;99691.00;;;;5050348;28;20041;-69
2023/10/04 03:07:56;;;;;;;3.72;2.05;;;;;11.40;99694.00;;;;5051217;28;20041;-69
2023/10/04 03:10:24;;;;;;;6.65;2.45;;;;;11.30;99699.00;;;;5051341;28;20429;-69
2023/10/04 03:12:59;;;;;;;3.88;2.03;;;;;11.30;99696.00;;;;5051262;28;20103;-68
2023/10/04 03:15:28;;;;;;;14.07;9.95;;;;;11.30;99698.00;;;;5050674;28;20140;-69
2023/10/04 03:17:59;;;;;;;9.52;2.92;;;;;11.20;99693.00;;;;5034640;28;20040;-69
2023/10/04 03:20:30;;;;;;;5.47;2.42;;;;;11.10;99693.00;;;;5035287;28;20045;-69
2023/10/04 03:23:00;;;;;;;5.75;2.35;;;;;10.90;99686.00;;;;5051204;28;20044;-69
2023/10/04 03:25:28;;;;;;;6.30;2.55;;;;;10.80;99684.00;;;;5050710;28;20506;-68
2023/10/04 03:27:57;;;;;;;5.18;2.47;;;;;10.80;99686.00;;;;5052414;28;20087;-68
2023/10/04 03:30:24;;;;;;;6.13;2.92;;;;;10.90;99693.00;;;;5052232;28;20052;-69
2023/10/04 03:32:56;;;;;;;3.30;2.58;;;;;10.90;99683.00;;;;5050876;28;20111;-68
2023/10/04 03:35:26;;;;;;;4.32;2.70;;;;;10.90;99692.00;;;;5034486;28;20060;-68
2023/10/04 03:37:58;;;;;;;5.47;2.65;;;;;10.90;99691.00;;;;5034753;28;20041;-68
2023/10/04 03:40:34;;;;;;;7.55;3.42;;;;;10.90;99684.00;;;;5034906;28;20055;-68
2023/10/04 03:43:07;;;;;;;4.95;2.90;;;;;10.90;99679.00;;;;5050966;28;20073;-69
2023/10/04 03:45:39;;;;;;;3.95;2.40;;;;;10.80;99689.00;;;;5034098;28;20118;-69
2023/10/04 03:48:16;;;;;;;5.68;2.80;;;;;10.70;99683.00;;;;5050967;28;20064;-68
2023/10/04 03:50:50;;;;;;;6.60;2.80;;;;;10.60;99676.00;;;;5050794;28;20045;-68
2023/10/04 03:53:21;;;;;;;6.68;2.70;;;;;10.70;99677.00;;;;5050860;28;20524;-69
2023/10/04 03:55:50;;;;;;;4.45;2.65;;;;;10.70;99673.00;;;;5050383;28;20044;-69
2023/10/04 03:58:20;;;;;;;5.90;2.90;;;;;10.70;99682.00;;;;5050987;28;20072;-69
2023/10/04 04:00:49;;;;;;;6.05;2.70;;;;;10.80;99692.00;;;;5051072;28;20366;-69
2023/10/04 04:03:16;;;;;;;4.65;2.80;;;;;10.90;99693.00;;;;5052159;28;20049;-69
2023/10/04 04:05:44;;;;;;;5.80;3.55;;;;;11.00;99691.00;;;;5057946;28;20055;-69
2023/10/04 04:08:13;;;;;;;6.93;3.10;;;;;11.00;99693.00;;;;5060545;28;20498;-69
2023/10/04 04:10:40;;;;;;;4.18;2.72;;;;;11.00;99696.00;;;;5061609;28;20053;-68
2023/10/04 04:13:07;;;;;;;4.72;2.35;;;;;11.10;99690.00;;;;5057728;28;20047;-68
2023/10/04 04:15:35;;;;;;;6.50;2.83;;;;;11.00;99690.00;;;;5039957;28;20040;-68
2023/10/04 04:18:13;;;;;;;7.53;2.80;;;;;11.00;99684.00;;;;5043288;28;20045;-68
2023/10/04 04:20:41;;;;;;;8.25;3.30;;;;;11.00;99686.00;;;;5042348;28;20072;-68
2023/10/04 04:23:10;;;;;;;5.70;3.00;;;;;11.00;99688.00;;;;5057866;28;20051;-69
2023/10/04 04:25:38;;;;;;;5.15;3.40;;;;;10.80;99683.00;;;;5054193;28;20464;-69
2023/10/04 04:28:07;;;;;;;5.80;3.33;;;;;10.80;99681.00;;;;5054295;28;20056;-69
2023/10/04 04:30:35;;;;;;;4.43;2.45;;;;;10.70;99689.00;;;;5055801;28;20037;-69
2023/10/04 04:33:07;;;;;;;5.57;2.72;;;;;10.70;99691.00;;;;5038183;28;20498;-69
2023/10/04 04:38:24;;;;;;;6.85;3.20;;;;;10.60;99685.00;;;;5055343;28;20088;-69
2023/10/04 04:41:04;;;;;;;6.70;3.28;;;;;10.40;99681.00;;;;5054116;28;20537;-69
2023/10/04 04:43:38;;;;;;;6.15;3.10;;;;;10.40;99689.00;;;;5053577;28;20077;-69
2023/10/04 04:46:13;;;;;;;8.88;4.05;;;;;10.60;99674.00;;;;5053966;28;20071;-68
2023/10/04 04:48:41;;;;;;;5.13;3.30;;;;;10.60;99683.00;;;;5054056;28;20041;-68
2023/10/04 04:53:47;;;;;;;5.53;2.75;;;;;10.80;99691.00;;;;5054718;28;20045;-68
2023/10/04 04:56:18;;;;;;;6.23;2.70;;;;;10.90;99693.00;;;;5053799;28;20048;-68
2023/10/04 04:58:48;;;;;;;5.97;3.67;;;;;10.90;99694.00;;;;5054537;28;20072;-68
2023/10/04 05:01:16;;;;;;;12.20;4.82;;;;;10.90;99689.00;;;;5054903;28;20072;-67
2023/10/04 05:03:45;;;;;;;8.02;4.00;;;;;10.90;99688.00;;;;5053434;28;20099;-67
2023/10/04 05:06:20;;;;;;;6.40;4.00;;;;;11.00;99693.00;;;;5054904;28;20037;-68
2023/10/04 05:08:48;;;;;;;6.18;3.22;;;;;11.00;99687.00;;;;5055014;28;20076;-68
2023/10/04 05:11:14;;;;;;;5.70;3.90;;;;;11.00;99690.00;;;;5055195;28;20045;-67
2023/10/04 05:13:41;;;;;;;5.40;3.38;;;;;11.00;99692.00;;;;5054418;28;20119;-67
2023/10/04 05:16:08;;;;;;;7.07;3.58;;;;;11.00;99692.00;;;;5054783;28;20098;-68
2023/10/04 05:18:34;;;;;;;5.70;2.70;;;;;11.00;99692.00;;;;5053591;28;20052;-67
2023/10/04 05:21:02;;;;;;;4.78;2.72;;;;;11.00;99699.00;;;;5036958;28;20148;-68
2023/10/04 05:23:31;;;;;;;8.48;3.15;;;;;11.00;99696.00;;;;5053172;28;20111;-67
2023/10/04 05:25:59;;;;;;;6.13;2.92;;;;;11.00;99690.00;;;;5053354;28;20080;-67
2023/10/04 05:28:27;;;;;;;6.30;3.17;;;;;11.00;99690.00;;;;5052624;28;20136;-67
2023/10/04 05:30:54;;;;;;;6.75;3.85;;;;;11.10;99691.00;;;;5053436;28;20563;-67
2023/10/04 05:33:22;;;;;;;9.18;3.58;;;;;11.10;99703.00;;;;5054454;28;20033;-68
2023/10/04 05:35:55;;;;;;;4.72;2.83;;;;;11.10;99703.00;;;;5052734;28;20049;-67
2023/10/04 05:38:23;;;;;;;7.47;3.33;;;;;11.10;99698.00;;;;5054683;28;20037;-67
2023/10/04 05:40:50;;;;;;;5.75;2.85;;;;;11.10;99702.00;;;;5053251;28;20049;-67
2023/10/04 05:43:18;;;;;;;11.05;3.35;;;;;11.10;99708.00;;;;5054441;28;20127;-67
2023/10/04 05:45:47;;;;;;;4.72;2.97;;;;;11.10;99717.00;;;;5053573;28;20045;-68
2023/10/04 05:48:18;;;;;;;5.53;3.42;;;;;11.00;99716.00;;;;5052740;28;20045;-69
2023/10/04 05:50:49;;;;;;;7.45;4.15;;;;;11.00;99724.00;;;;5052917;28;20049;-67
2023/10/04 05:53:19;;;;;;;7.22;3.85;;;;;11.00;99716.00;;;;5054190;28;20051;-67
2023/10/04 05:55:48;;;;;;;9.38;2.88;;;;;11.00;99710.00;;;;5053640;28;20414;-68
2023/10/04 05:58:16;;;;;;;10.50;4.85;;;;;11.00;99707.00;;;;5052766;28;20041;-68
2023/10/04 06:00:42;;;;;;;10.88;3.70;;;;;11.00;99704.00;;;;5052400;28;20261;-68
2023/10/04 06:03:11;;;;;;;8.13;4.18;;;;;11.00;99713.00;;;;5053909;28;20493;-68
2023/10/04 06:05:42;;;;;;;8.18;3.22;;;;;10.90;99725.00;;;;5051962;28;20045;-67
2023/10/04 06:08:21;;;;;;;10.48;4.28;;;;;11.00;99723.00;;;;5052792;28;20045;-67
2023/10/04 06:10:51;;;;;;;7.88;4.50;;;;;10.90;99724.00;;;;5053870;28;20124;-67
2023/10/04 06:13:18;;;;;;;9.27;4.15;;;;;10.90;99733.00;;;;5052463;28;20130;-68
2023/10/04 06:15:49;;;;;;;5.03;3.05;;;;;10.90;99740.00;;;;5053134;28;20040;-68
2023/10/04 06:18:16;;;;;;;8.20;3.85;;;;;10.90;99740.00;;;;5053928;28;20528;-67
2023/10/04 06:20:45;;;;;;;11.77;4.60;;;;;11.00;99737.00;;;;5053885;28;20080;-67
2023/10/04 06:23:14;;;;;;;11.05;3.35;;;;;11.00;99746.00;;;;5053625;28;20052;-68
2023/10/04 06:25:44;;;;;;;10.88;3.78;;;;;11.10;99748.00;;;;5052907;28;20045;-67
2023/10/04 06:28:11;;;;;;;6.72;3.75;;;;;11.10;99750.00;;;;5052416;28;20045;-67
2023/10/04 06:30:40;;;;;;;8.07;3.42;;;;;11.20;99752.00;;;;5052200;28;20132;-68
2023/10/04 06:33:09;;;;;;;7.78;3.40;;;;;11.20;99747.00;;;;5052341;28;20044;-67
2023/10/04 06:35:37;;;;;;;6.45;3.28;;;;;11.10;99745.00;;;;5051688;28;20064;-69
2023/10/04 06:38:10;;;;;;;5.65;3.20;;;;;10.90;99756.00;;;;5053018;28;20406;-67
2023/10/04 06:40:37;;;;;;;9.57;3.65;;;;;11.00;99762.00;;;;5051583;28;20053;-68
2023/10/04 06:43:05;;;;;;;12.63;4.15;;;;;11.10;99766.00;;;;5051750;28;20056;-67
2023/10/04 06:45:34;;;;;;;8.30;4.07;;;;;11.30;99778.00;;;;5052866;28;20041;-69
2023/10/04 06:48:03;;;;;;;7.63;3.38;;;;;11.40;99773.00;;;;5051709;28;20045;-67
2023/10/04 06:50:35;;;;;;;6.57;3.83;;;;;11.60;99776.00;;;;5052007;28;20044;-67
2023/10/04 06:53:03;;;;;;;6.75;3.70;;;;;11.70;99785.00;;;;5051851;28;20057;-69
2023/10/04 06:55:32;;;;;;;8.07;3.90;;;;;11.70;99782.00;;;;5051183;28;20044;-68
2023/10/04 06:58:00;;;;;;;8.30;3.88;;;;;11.80;99777.00;;;;5051463;28;20139;-69
2023/10/04 07:00:36;;;;;;;8.07;3.90;;;;;11.80;99796.00;;;;5052735;28;20063;-68
2023/10/04 07:03:04;;;;;;;7.75;4.25;;;;;11.90;99799.00;;;;5035167;28;20102;-68
2023/10/04 07:05:36;;;;;;;7.07;4.10;;;;;12.00;99799.00;;;;5051035;28;20073;-68
2023/10/04 07:08:05;;;;;;;11.00;4.47;;;;;12.10;99806.00;;;;5051424;28;20254;-68
2023/10/04 07:10:32;;;;;;;8.50;3.75;;;;;12.30;99805.00;;;;5051363;28;20045;-67
2023/10/04 07:13:01;;;;;;;8.35;4.80;;;;;12.40;99817.00;;;;5052457;28;20131;-67
2023/10/04 07:15:35;;;;;;;10.32;3.90;;;;;12.50;99822.00;;;;5052018;28;20045;-67
2023/10/04 07:18:06;;;;;;;9.20;4.30;;;;;12.60;99812.00;;;;5051109;28;20068;-67
2023/10/04 07:20:34;;;;;;;7.82;3.88;;;;;12.60;99808.00;;;;5050759;28;20059;-67
2023/10/04 07:23:05;;;;;;;7.82;3.47;;;;;12.70;99818.00;;;;5051067;28;20056;-67
2023/10/04 07:25:37;;;;;;;6.97;4.43;;;;;12.70;99826.00;;;;5051782;28;20049;-66
2023/10/04 07:28:08;;;;;;;6.35;3.90;;;;;12.80;99825.00;;;;5052169;28;20124;-66
2023/10/04 07:30:36;;;;;;;6.35;4.07;;;;;12.80;99813.00;;;;5052419;28;20044;-67
2023/10/04 07:33:03;;;;;;;8.18;4.00;;;;;13.00;99828.00;;;;5052275;28;20128;-67
2023/10/04 07:35:32;;;;;;;9.55;3.88;;;;;13.10;99828.00;;;;5051644;28;20117;-68
2023/10/04 07:37:58;;;;;;;7.82;3.80;;;;;13.10;99832.00;;;;5050951;28;20112;-67
2023/10/04 07:40:30;;;;;;;9.10;3.83;;;;;13.30;99828.00;;;;5052182;28;20071;-66
2023/10/04 07:42:59;;;;;;;7.25;3.83;;;;;13.30;99836.00;;;;5052030;28;20049;-66
2023/10/04 07:45:30;;;;;;;7.50;3.40;;;;;13.40;99839.00;;;;5050455;28;20045;-66
2023/10/04 07:47:59;;;;;;;12.37;4.27;;;;;13.50;99836.00;;;;5050928;28;20051;-67
2023/10/04 07:50:26;;;;;;;8.52;3.92;;;;;13.60;99835.00;;;;5051709;28;20040;-67
2023/10/04 07:53:04;;;;;;;7.75;3.63;;;;;13.80;99839.00;;;;5050737;28;20060;-67
2023/10/04 07:55:33;;;;;;;7.50;4.10;;;;;14.00;99831.00;;;;5051314;28;20128;-67
2023/10/04 07:58:04;;;;;;;6.43;3.97;;;;;14.10;99831.00;;;;5050695;28;20041;-67
2023/10/04 08:00:36;;;;;;;8.57;4.07;;;;;14.20;99828.00;;;;5051770;28;20102;-66
2023/10/04 08:03:14;;;;;;;8.45;3.90;;;;;14.30;99831.00;;;;5050634;28;20099;-65
2023/10/04 08:05:41;;;;;;;7.70;3.78;;;;;14.40;99831.00;;;;5051296;28;20135;-66
2023/10/04 08:08:07;;;;;;;5.63;3.67;;;;;14.50;99835.00;;;;5051755;28;20063;-66
2023/10/04 08:10:36;;;;;;;7.97;3.60;;;;;14.60;99845.00;;;;5051989;28;20055;-66
2023/10/04 08:13:05;;;;;;;5.90;3.33;;;;;14.70;99846.00;;;;5051873;28;20127;-67
2023/10/04 08:15:36;;;;;;;9.43;4.03;;;;;14.70;99846.00;;;;5049852;28;20052;-66
2023/10/04 08:18:04;;;;;;;13.98;6.85;;;;;14.80;99836.00;;;;5051718;28;20041;-66
2023/10/04 08:20:32;;;;;;;9.15;4.47;;;;;14.90;99832.00;;;;5050719;28;20196;-66
2023/10/04 08:23:02;;;;;;;8.65;3.38;;;;;15.00;99841.00;;;;5050487;28;20051;-67
2023/10/04 08:25:29;;;;;;;8.90;4.45;;;;;15.00;99847.00;;;;5051130;28;20049;-66
2023/10/04 08:27:56;;;;;;;9.45;3.38;;;;;15.00;99834.00;;;;5051451;28;20047;-67
2023/10/04 08:30:23;;;;;;;4.97;3.40;;;;;14.90;99834.00;;;;5051603;28;20041;-67
2023/10/04 08:32:51;;;;;;;10.43;3.55;;;;;14.90;99845.00;;;;5050470;28;20053;-66
2023/10/04 08:35:21;;;;;;;8.57;3.15;;;;;14.90;99838.00;;;;5049703;28;20076;-67
2023/10/04 08:37:53;;;;;;;5.80;3.15;;;;;15.00;99832.00;;;;5051578;28;20487;-66
2023/10/04 08:40:21;;;;;;;10.63;2.53;;;;;15.10;99827.00;;;;5051391;28;20132;-66
2023/10/04 08:42:51;;;;;;;5.05;3.08;;;;;15.20;99826.00;;;;5051416;28;20457;-67
2023/10/04 08:45:22;;;;;;;6.88;3.50;;;;;15.40;99831.00;;;;5049601;28;20521;-66
2023/10/04 08:47:51;;;;;;;8.50;3.38;;;;;15.50;99827.00;;;;5051342;28;20037;-66
2023/10/04 08:50:49;;;;;;;7.05;3.40;;;;;15.70;99823.00;;;;5050320;28;20132;-67
2023/10/04 08:53:34;;;;;;;5.68;3.00;;;;;15.80;99824.00;;;;5052041;28;20055;-66
2023/10/04 08:56:13;;;;;;;6.22;3.25;;;;;15.80;99808.00;;;;5051631;28;20451;-66
2023/10/04 08:58:40;;;;;;;7.65;3.70;;;;;15.90;99810.00;;;;5051640;28;20033;-66
2023/10/04 09:01:08;;;;;;;5.75;2.97;;;;;15.80;99817.00;;;;5051280;28;20090;-67
2023/10/04 09:03:35;;;;;;;9.00;3.53;;;;;15.70;99825.00;;;;5053547;28;20041;-67
2023/10/04 09:06:05;;;;;;;10.15;3.40;;;;;15.80;99825.00;;;;5055003;28;20371;-67
2023/10/04 09:08:32;;;;;;;6.43;3.40;;;;;15.80;99820.00;;;;5054759;28;20041;-66
2023/10/04 09:10:58;;;;;;;7.63;3.70;;;;;15.80;99826.00;;;;5053550;28;20297;-66
2023/10/04 09:13:25;;;;;;;10.52;3.58;;;;;15.90;99828.00;;;;5053211;28;20099;-67
2023/10/04 09:15:52;;;;;;;6.43;3.30;;;;;16.00;99826.00;;;;5054649;28;20055;-67
2023/10/04 09:18:30;;;;;;;15.80;3.50;;;;;16.10;99827.00;;;;5054965;28;20127;-67
2023/10/04 09:20:57;;;;;;;7.75;2.95;;;;;16.20;99829.00;;;;5037190;28;20386;-67
2023/10/04 09:23:23;;;;;;;7.53;2.88;;;;;16.30;99836.00;;;;5054628;28;20040;-67
2023/10/04 09:25:55;;;;;;;5.97;3.13;;;;;16.40;99828.00;;;;5054398;28;20045;-67
2023/10/04 09:28:40;;;;;;;10.13;3.33;;;;;16.50;99831.00;;;;5054777;28;20041;-66
2023/10/04 09:31:11;;;;;;;9.00;3.00;;;;;16.60;99832.00;;;;5053494;28;20049;-67
2023/10/04 09:33:37;;;;;;;9.77;3.38;;;;;16.50;99831.00;;;;5053980;28;20063;-67
2023/10/04 09:36:04;;;;;;;7.00;3.40;;;;;16.50;99830.00;;;;5054872;28;20533;-66
2023/10/04 09:38:35;;;;;;;9.80;2.88;;;;;16.60;99829.00;;;;5054834;28;20037;-66
2023/10/04 09:41:02;;;;;;;7.25;3.15;;;;;16.70;99826.00;;;;5054663;28;20056;-66
2023/10/04 09:43:32;;;;;;;8.18;3.05;;;;;16.80;99826.00;;;;5052824;28;20139;-66
2023/10/04 09:45:59;;;;;;;6.43;3.28;;;;;16.90;99813.00;;;;5054349;28;20076;-66
2023/10/04 09:48:33;;;;;;;6.50;2.88;;;;;17.00;99826.00;;;;5054153;28;20041;-67
2023/10/04 09:51:04;;;;;;;7.97;2.90;;;;;17.00;99823.00;;;;5041258;28;20406;-67
2023/10/04 09:53:32;;;;;;;7.70;3.17;;;;;17.10;99826.00;;;;5046680;28;20045;-66
2023/10/04 09:56:03;;;;;;;5.93;2.85;;;;;17.10;99827.00;;;;5054028;28;20051;-66
2023/10/04 09:58:31;;;;;;;6.20;2.80;;;;;17.20;99829.00;;;;5054197;28;20130;-66
2023/10/04 10:01:11;;;;;;;8.85;2.45;;;;;17.30;99823.00;;;;5053916;28;20045;-66
2023/10/04 10:03:57;;;;;;;8.35;2.95;;;;;17.20;99820.00;;;;5053347;28;20052;-66
2023/10/04 10:06:27;;;;;;;7.78;2.90;;;;;17.30;99823.00;;;;5054114;28;20552;-67
2023/10/04 10:09:07;;;;;;;9.55;2.40;;;;;17.50;99824.00;;;;5052779;28;20041;-65
2023/10/04 10:11:35;;;;;;;7.70;2.72;;;;;17.40;99826.00;;;;5054100;28;20044;-66
2023/10/04 10:14:03;;;;;;;7.97;3.40;;;;;17.30;99822.00;;;;5053264;28;20045;-66
2023/10/04 10:16:33;;;;;;;9.65;2.88;;;;;17.20;99827.00;;;;5053577;28;20083;-66
2023/10/04 10:19:02;;;;;;;8.13;3.05;;;;;17.10;99829.00;;;;5053627;28;20079;-67
2023/10/04 10:22:05;;;;;;;7.75;2.92;;;;;17.00;99818.00;;;;5052441;28;20076;-66
2023/10/04 10:24:33;;;;;;;10.50;3.20;;;;;17.10;99825.00;;;;5051867;28;20091;-67
2023/10/04 10:27:04;;;;;;;10.98;3.53;;;;;17.40;99817.00;;;;5053450;28;20401;-67
2023/10/04 10:29:31;;;;;;;6.85;2.72;;;;;17.50;99826.00;;;;5053292;28;20045;-67
2023/10/04 10:32:00;;;;;;;11.63;3.55;;;;;17.40;99813.00;;;;5053375;28;20537;-67
2023/10/04 10:34:28;;;;;;;5.80;2.80;;;;;17.40;99813.00;;;;5052874;28;20501;-67
2023/10/04 10:37:19;;;;;;;8.02;3.42;;;;;17.50;99824.00;;;;5053348;28;20049;-67
2023/10/04 10:39:47;;;;;;;6.50;2.95;;;;;17.80;99823.00;;;;5052338;28;20132;-67
2023/10/04 10:42:15;;;;;;;6.03;2.55;;;;;18.00;99825.00;;;;5053303;28;20393;-67
2023/10/04 10:44:43;;;;;;;5.28;2.60;;;;;18.30;99823.00;;;;5052748;28;20120;-67
2023/10/04 10:47:23;;;;;;;9.55;3.45;;;;;18.60;99820.00;;;;5051869;28;20044;-67
2023/10/04 10:49:58;;;;;;;6.47;3.05;;;;;18.80;99820.00;;;;5053534;28;20045;-67
2023/10/04 10:52:34;;;;;;;12.63;3.35;;;;;18.90;99821.00;;;;5053149;28;20041;-68
2023/10/04 10:55:05;;;;;;;9.02;3.17;;;;;18.90;99824.00;;;;5052718;28;20041;-67
2023/10/04 10:57:36;;;;;;;6.10;2.42;;;;;18.80;99824.00;;;;5053086;28;20128;-67
2023/10/04 11:00:19;;;;;;;9.70;3.33;;;;;18.90;99817.00;;;;5051538;28;20115;-67
2023/10/04 11:02:53;;;;;;;12.45;3.65;;;;;19.00;99821.00;;;;5052830;28;20080;-66
2023/10/04 11:05:22;;;;;;;9.93;2.78;;;;;19.10;99822.00;;;;5050877;28;20076;-66
2023/10/04 11:07:51;;;;;;;7.82;2.63;;;;;19.10;99805.00;;;;5034948;28;20055;-66
2023/10/04 11:10:19;;;;;;;6.90;2.95;;;;;19.20;99811.00;;;;5052686;28;20401;-67
2023/10/04 11:12:47;;;;;;;8.77;3.05;;;;;19.10;99817.00;;;;5052756;28;20093;-67
2023/10/04 11:15:17;;;;;;;7.32;3.28;;;;;19.10;99809.00;;;;5052149;28;20559;-67
2023/10/04 11:17:46;;;;;;;11.07;3.10;;;;;19.30;99793.00;;;;5052634;28;20055;-67
2023/10/04 11:20:17;;;;;;;9.23;2.95;;;;;19.50;99790.00;;;;5052767;28;20068;-66
2023/10/04 11:22:45;;;;;;;9.00;3.15;;;;;19.40;99793.00;;;;5052644;28;20392;-67
2023/10/04 11:25:15;;;;;;;3.88;2.20;;;;;19.40;99796.00;;;;5051436;28;20041;-67
2023/10/04 11:27:43;;;;;;;6.82;3.05;;;;;19.30;99801.00;;;;5052477;28;20052;-67
2023/10/04 11:30:13;;;;;;;6.60;2.80;;;;;19.40;99792.00;;;;5051406;28;20075;-67
2023/10/04 11:32:41;;;;;;;5.95;2.58;;;;;19.30;99798.00;;;;5052598;28;20417;-66
2023/10/04 11:35:08;;;;;;;8.93;3.00;;;;;19.10;99790.00;;;;5051735;28;20045;-66
2023/10/04 11:37:46;;;;;;;6.90;3.05;;;;;19.10;99788.00;;;;5051086;28;20060;-66
2023/10/04 11:40:19;;;;;;;7.53;2.90;;;;;19.10;99779.00;;;;5052267;28;20371;-66
2023/10/04 11:42:46;;;;;;;5.93;2.60;;;;;19.40;99777.00;;;;5052232;28;20045;-66
2023/10/04 11:45:29;;;;;;;7.18;3.33;;;;;19.50;99774.00;;;;5051709;28;20074;-66
2023/10/04 11:48:00;;;;;;;9.25;3.50;;;;;19.80;99776.00;;;;5052108;28;20079;-67
2023/10/04 11:50:42;;;;;;;9.25;3.67;;;;;19.80;99778.00;;;;5052184;28;20486;-66
2023/10/04 11:53:11;;;;;;;9.40;3.90;;;;;19.70;99766.00;;;;5052036;28;20040;-67
2023/10/04 11:55:38;;;;;;;9.02;3.00;;;;;19.70;99759.00;;;;5051558;28;20067;-66
2023/10/04 11:58:06;;;;;;;9.70;4.85;;;;;19.70;99754.00;;;;5052337;28;20132;-67
2023/10/04 12:00:33;;;;;;;10.60;4.85;;;;;19.90;99746.00;;;;5052214;28;20107;-67
2023/10/04 12:02:59;;;;;;;8.95;3.92;;;;;20.10;99737.00;;;;5052144;28;20076;-67
2023/10/04 12:05:27;;;;;;;9.20;3.78;;;;;20.30;99743.00;;;;5051543;28;20051;-67
2023/10/04 12:07:58;;;;;;;9.95;3.70;;;;;20.50;99728.00;;;;5052064;28;20460;-67
2023/10/04 12:10:25;;;;;;;9.57;4.20;;;;;20.50;99732.00;;;;5050636;28;20076;-67
2023/10/04 12:12:57;;;;;;;10.73;4.97;;;;;20.30;99725.00;;;;5050661;28;20088;-67
2023/10/04 12:15:25;;;;;;;10.85;4.30;;;;;20.40;99719.00;;;;5051303;28;20044;-67
2023/10/04 12:17:52;;;;;;;8.55;3.85;;;;;20.60;99728.00;;;;5051648;28;20449;-67
2023/10/04 12:20:20;;;;;;;9.50;4.68;;;;;20.50;99722.00;;;;5051780;28;20045;-67
2023/10/04 12:22:48;;;;;;;7.53;3.60;;;;;20.50;99728.00;;;;5050454;28;20049;-67
2023/10/04 12:25:15;;;;;;;12.48;4.60;;;;;20.60;99722.00;;;;5050041;28;20053;-67
2023/10/04 12:27:43;;;;;;;9.75;5.03;;;;;20.50;99717.00;;;;5051627;28;20041;-67
2023/10/04 12:30:11;;;;;;;10.60;5.32;;;;;20.50;99715.00;;;;5051829;28;20041;-67
2023/10/04 12:32:37;;;;;;;13.50;5.53;;;;;20.50;99722.00;;;;5051789;28;20123;-67
2023/10/04 12:35:06;;;;;;;9.85;4.35;;;;;20.40;99723.00;;;;5051092;28;20072;-67